sensor_id;sensor_type;location;lat;lon;timestamp;P1;durP1;ratioP1;P2;durP2;ratioP2
29686;SDS011;16599;47.078;15.536;2023-06-14T00:01:56;9.80;;;4.95;;
29686;SDS011;16599;47.078;15.536;2023-06-14T00:04:23;8.48;;;4.50;;
29686;SDS011;16599;47.078;15.536;2023-06-14T00:06:51;10.00;;;4.75;;
29686;SDS011;16599;47.078;15.536;2023-06-14T00:09:18;9.45;;;5.38;;
29686;SDS011;16599;47.078;15.536;2023-06-14T00:11:45;8.50;;;4.53;;
29686;SDS011;16599;47.078;15.536;2023-06-14T00:14:12;10.35;;;4.65;;
29686;SDS011;16599;47.078;15.536;2023-06-14T00:16:39;8.70;;;5.13;;
29686;SDS011;16599;47.078;15.536;2023-06-14T00:19:09;8.68;;;4.60;;
29686;SDS011;16599;47.078;15.536;2023-06-14T00:21:37;10.40;;;5.47;;
29686;SDS011;16599;47.078;15.536;2023-06-14T00:24:04;9.88;;;5.65;;
29686;SDS011;16599;47.078;15.536;2023-06-14T00:26:31;8.82;;;5.50;;
29686;SDS011;16599;47.078;15.536;2023-06-14T00:28:58;11.85;;;5.20;;
29686;SDS011;16599;47.078;15.536;2023-06-14T00:31:25;13.07;;;4.95;;
29686;SDS011;16599;47.078;15.536;2023-06-14T00:33:52;9.68;;;4.85;;
29686;SDS011;16599;47.078;15.536;2023-06-14T00:36:19;6.45;;;4.70;;
29686;SDS011;16599;47.078;15.536;2023-06-14T00:38:46;6.97;;;4.30;;
29686;SDS011;16599;47.078;15.536;2023-06-14T00:41:13;7.75;;;4.80;;
29686;SDS011;16599;47.078;15.536;2023-06-14T00:43:40;9.30;;;4.75;;
29686;SDS011;16599;47.078;15.536;2023-06-14T00:46:07;8.43;;;4.53;;
29686;SDS011;16599;47.078;15.536;2023-06-14T00:48:34;8.80;;;4.93;;
29686;SDS011;16599;47.078;15.536;2023-06-14T00:51:02;7.25;;;4.90;;
29686;SDS011;16599;47.078;15.536;2023-06-14T00:53:30;6.20;;;4.82;;
29686;SDS011;16599;47.078;15.536;2023-06-14T00:58:29;6.97;;;4.60;;
29686;SDS011;16599;47.078;15.536;2023-06-14T01:00:57;9.15;;;4.40;;
29686;SDS011;16599;47.078;15.536;2023-06-14T01:03:24;11.52;;;4.57;;
29686;SDS011;16599;47.078;15.536;2023-06-14T01:05:53;8.10;;;4.82;;
29686;SDS011;16599;47.078;15.536;2023-06-14T01:08:45;5.88;;;4.30;;
29686;SDS011;16599;47.078;15.536;2023-06-14T01:11:28;6.50;;;4.53;;
29686;SDS011;16599;47.078;15.536;2023-06-14T01:14:04;5.63;;;4.75;;
29686;SDS011;16599;47.078;15.536;2023-06-14T01:16:32;8.52;;;4.60;;
29686;SDS011;16599;47.078;15.536;2023-06-14T01:19:02;6.63;;;4.80;;
29686;SDS011;16599;47.078;15.536;2023-06-14T01:21:31;5.22;;;4.22;;
29686;SDS011;16599;47.078;15.536;2023-06-14T01:24:00;9.10;;;5.15;;
29686;SDS011;16599;47.078;15.536;2023-06-14T01:26:29;5.93;;;5.13;;
29686;SDS011;16599;47.078;15.536;2023-06-14T01:28:56;7.20;;;5.13;;
29686;SDS011;16599;47.078;15.536;2023-06-14T01:31:24;8.48;;;4.63;;
29686;SDS011;16599;47.078;15.536;2023-06-14T01:33:52;9.07;;;4.97;;
29686;SDS011;16599;47.078;15.536;2023-06-14T01:36:19;13.82;;;5.43;;
29686;SDS011;16599;47.078;15.536;2023-06-14T01:38:46;9.50;;;4.50;;
29686;SDS011;16599;47.078;15.536;2023-06-14T01:41:16;9.07;;;5.20;;
29686;SDS011;16599;47.078;15.536;2023-06-14T01:43:45;8.07;;;4.40;;
29686;SDS011;16599;47.078;15.536;2023-06-14T01:46:13;8.25;;;5.25;;
29686;SDS011;16599;47.078;15.536;2023-06-14T01:48:42;6.88;;;5.20;;
29686;SDS011;16599;47.078;15.536;2023-06-14T01:51:09;7.15;;;5.50;;
29686;SDS011;16599;47.078;15.536;2023-06-14T01:53:36;8.80;;;5.07;;
29686;SDS011;16599;47.078;15.536;2023-06-14T01:56:03;9.48;;;5.20;;
29686;SDS011;16599;47.078;15.536;2023-06-14T01:58:30;11.18;;;5.78;;
29686;SDS011;16599;47.078;15.536;2023-06-14T02:00:57;12.20;;;4.90;;
29686;SDS011;16599;47.078;15.536;2023-06-14T02:03:27;7.72;;;4.85;;
29686;SDS011;16599;47.078;15.536;2023-06-14T02:05:54;5.65;;;4.40;;
29686;SDS011;16599;47.078;15.536;2023-06-14T02:08:22;9.85;;;5.10;;
29686;SDS011;16599;47.078;15.536;2023-06-14T02:10:49;9.23;;;4.70;;
29686;SDS011;16599;47.078;15.536;2023-06-14T02:13:16;11.07;;;4.93;;
29686;SDS011;16599;47.078;15.536;2023-06-14T02:15:43;8.43;;;5.30;;
29686;SDS011;16599;47.078;15.536;2023-06-14T02:18:11;6.60;;;4.60;;
29686;SDS011;16599;47.078;15.536;2023-06-14T02:20:38;9.68;;;5.47;;
29686;SDS011;16599;47.078;15.536;2023-06-14T02:23:05;7.43;;;4.90;;
29686;SDS011;16599;47.078;15.536;2023-06-14T02:25:34;8.68;;;5.22;;
29686;SDS011;16599;47.078;15.536;2023-06-14T02:28:01;8.90;;;5.35;;
29686;SDS011;16599;47.078;15.536;2023-06-14T02:30:28;7.22;;;5.00;;
29686;SDS011;16599;47.078;15.536;2023-06-14T02:32:55;7.95;;;5.10;;
29686;SDS011;16599;47.078;15.536;2023-06-14T02:35:23;13.82;;;5.40;;
29686;SDS011;16599;47.078;15.536;2023-06-14T02:37:53;6.07;;;4.90;;
29686;SDS011;16599;47.078;15.536;2023-06-14T02:40:20;10.18;;;5.22;;
29686;SDS011;16599;47.078;15.536;2023-06-14T02:42:46;10.13;;;5.40;;
29686;SDS011;16599;47.078;15.536;2023-06-14T02:45:13;10.18;;;5.35;;
29686;SDS011;16599;47.078;15.536;2023-06-14T02:47:41;9.18;;;5.20;;
29686;SDS011;16599;47.078;15.536;2023-06-14T02:50:08;9.02;;;4.63;;
29686;SDS011;16599;47.078;15.536;2023-06-14T02:52:35;12.30;;;4.88;;
29686;SDS011;16599;47.078;15.536;2023-06-14T02:55:02;10.00;;;4.82;;
29686;SDS011;16599;47.078;15.536;2023-06-14T02:57:29;11.27;;;4.85;;
29686;SDS011;16599;47.078;15.536;2023-06-14T02:59:56;7.03;;;4.85;;
29686;SDS011;16599;47.078;15.536;2023-06-14T03:02:23;10.07;;;5.45;;
29686;SDS011;16599;47.078;15.536;2023-06-14T03:04:49;8.57;;;5.43;;
29686;SDS011;16599;47.078;15.536;2023-06-14T03:07:16;6.35;;;4.32;;
29686;SDS011;16599;47.078;15.536;2023-06-14T03:09:48;10.32;;;5.50;;
29686;SDS011;16599;47.078;15.536;2023-06-14T03:12:16;10.57;;;5.07;;
29686;SDS011;16599;47.078;15.536;2023-06-14T03:14:42;8.07;;;4.95;;
29686;SDS011;16599;47.078;15.536;2023-06-14T03:17:12;8.25;;;5.00;;
29686;SDS011;16599;47.078;15.536;2023-06-14T03:19:39;7.80;;;4.57;;
29686;SDS011;16599;47.078;15.536;2023-06-14T03:22:07;7.57;;;4.88;;
29686;SDS011;16599;47.078;15.536;2023-06-14T03:24:35;9.40;;;5.13;;
29686;SDS011;16599;47.078;15.536;2023-06-14T03:27:03;8.95;;;4.93;;
29686;SDS011;16599;47.078;15.536;2023-06-14T03:29:30;8.05;;;5.05;;
29686;SDS011;16599;47.078;15.536;2023-06-14T03:32:01;14.30;;;4.93;;
29686;SDS011;16599;47.078;15.536;2023-06-14T03:34:28;12.77;;;5.00;;
29686;SDS011;16599;47.078;15.536;2023-06-14T03:36:55;9.00;;;4.90;;
29686;SDS011;16599;47.078;15.536;2023-06-14T03:39:22;8.18;;;5.28;;
29686;SDS011;16599;47.078;15.536;2023-06-14T03:41:49;13.50;;;5.28;;
29686;SDS011;16599;47.078;15.536;2023-06-14T03:44:16;8.00;;;5.28;;
29686;SDS011;16599;47.078;15.536;2023-06-14T03:46:45;7.13;;;4.70;;
29686;SDS011;16599;47.078;15.536;2023-06-14T03:49:12;8.25;;;4.90;;
29686;SDS011;16599;47.078;15.536;2023-06-14T03:51:39;7.18;;;4.80;;
29686;SDS011;16599;47.078;15.536;2023-06-14T03:54:06;6.43;;;4.70;;
29686;SDS011;16599;47.078;15.536;2023-06-14T03:56:37;7.60;;;4.65;;
29686;SDS011;16599;47.078;15.536;2023-06-14T03:59:04;7.03;;;5.00;;
29686;SDS011;16599;47.078;15.536;2023-06-14T04:01:31;11.70;;;4.70;;
29686;SDS011;16599;47.078;15.536;2023-06-14T04:04:00;7.20;;;4.40;;
29686;SDS011;16599;47.078;15.536;2023-06-14T04:06:27;6.90;;;4.68;;
29686;SDS011;16599;47.078;15.536;2023-06-14T04:08:59;10.10;;;4.88;;
29686;SDS011;16599;47.078;15.536;2023-06-14T04:11:29;10.25;;;4.65;;
29686;SDS011;16599;47.078;15.536;2023-06-14T04:13:57;11.77;;;4.65;;
29686;SDS011;16599;47.078;15.536;2023-06-14T04:16:24;7.22;;;5.40;;
29686;SDS011;16599;47.078;15.536;2023-06-14T04:18:53;7.38;;;4.78;;
29686;SDS011;16599;47.078;15.536;2023-06-14T04:21:21;11.05;;;5.10;;
29686;SDS011;16599;47.078;15.536;2023-06-14T04:23:49;9.40;;;4.97;;
29686;SDS011;16599;47.078;15.536;2023-06-14T04:26:19;7.90;;;4.68;;
29686;SDS011;16599;47.078;15.536;2023-06-14T04:28:48;9.05;;;4.80;;
29686;SDS011;16599;47.078;15.536;2023-06-14T04:31:17;5.68;;;4.38;;
29686;SDS011;16599;47.078;15.536;2023-06-14T04:33:44;10.77;;;4.47;;
29686;SDS011;16599;47.078;15.536;2023-06-14T04:36:13;8.23;;;4.35;;
29686;SDS011;16599;47.078;15.536;2023-06-14T04:38:44;5.50;;;4.60;;
29686;SDS011;16599;47.078;15.536;2023-06-14T04:41:15;10.90;;;4.70;;
29686;SDS011;16599;47.078;15.536;2023-06-14T04:43:43;8.48;;;4.47;;
29686;SDS011;16599;47.078;15.536;2023-06-14T04:46:14;7.67;;;4.47;;
29686;SDS011;16599;47.078;15.536;2023-06-14T04:48:42;7.65;;;4.28;;
29686;SDS011;16599;47.078;15.536;2023-06-14T04:51:09;8.88;;;4.93;;
29686;SDS011;16599;47.078;15.536;2023-06-14T05:03:56;6.07;;;4.35;;
29686;SDS011;16599;47.078;15.536;2023-06-14T05:06:23;8.00;;;4.63;;
29686;SDS011;16599;47.078;15.536;2023-06-14T05:08:50;8.20;;;4.55;;
29686;SDS011;16599;47.078;15.536;2023-06-14T05:11:17;6.88;;;4.40;;
29686;SDS011;16599;47.078;15.536;2023-06-14T05:13:44;6.70;;;4.60;;
29686;SDS011;16599;47.078;15.536;2023-06-14T05:16:11;7.68;;;4.40;;
29686;SDS011;16599;47.078;15.536;2023-06-14T05:18:38;8.55;;;4.53;;
29686;SDS011;16599;47.078;15.536;2023-06-14T05:21:06;8.10;;;4.60;;
29686;SDS011;16599;47.078;15.536;2023-06-14T05:23:33;6.22;;;4.22;;
29686;SDS011;16599;47.078;15.536;2023-06-14T05:26:00;5.72;;;4.35;;
29686;SDS011;16599;47.078;15.536;2023-06-14T05:28:29;10.43;;;4.90;;
29686;SDS011;16599;47.078;15.536;2023-06-14T05:30:56;6.68;;;4.68;;
29686;SDS011;16599;47.078;15.536;2023-06-14T05:33:24;8.68;;;5.03;;
29686;SDS011;16599;47.078;15.536;2023-06-14T05:35:51;9.27;;;5.05;;
29686;SDS011;16599;47.078;15.536;2023-06-14T05:38:18;7.47;;;4.28;;
29686;SDS011;16599;47.078;15.536;2023-06-14T05:40:45;8.52;;;4.80;;
29686;SDS011;16599;47.078;15.536;2023-06-14T05:43:12;8.80;;;4.88;;
29686;SDS011;16599;47.078;15.536;2023-06-14T05:45:38;7.13;;;4.75;;
29686;SDS011;16599;47.078;15.536;2023-06-14T05:48:05;8.68;;;4.20;;
29686;SDS011;16599;47.078;15.536;2023-06-14T05:50:32;8.65;;;4.90;;
29686;SDS011;16599;47.078;15.536;2023-06-14T05:53:00;8.85;;;4.90;;
29686;SDS011;16599;47.078;15.536;2023-06-14T05:55:26;6.95;;;4.50;;
29686;SDS011;16599;47.078;15.536;2023-06-14T05:57:53;7.55;;;4.70;;
29686;SDS011;16599;47.078;15.536;2023-06-14T06:00:20;8.10;;;5.10;;
29686;SDS011;16599;47.078;15.536;2023-06-14T06:02:47;9.15;;;4.57;;
29686;SDS011;16599;47.078;15.536;2023-06-14T06:05:14;8.95;;;4.28;;
29686;SDS011;16599;47.078;15.536;2023-06-14T06:07:42;6.18;;;4.68;;
29686;SDS011;16599;47.078;15.536;2023-06-14T06:10:12;10.32;;;5.13;;
29686;SDS011;16599;47.078;15.536;2023-06-14T06:12:38;11.15;;;5.25;;
29686;SDS011;16599;47.078;15.536;2023-06-14T06:15:07;10.93;;;4.72;;
29686;SDS011;16599;47.078;15.536;2023-06-14T06:17:38;10.65;;;5.22;;
29686;SDS011;16599;47.078;15.536;2023-06-14T06:20:21;7.03;;;5.03;;
29686;SDS011;16599;47.078;15.536;2023-06-14T06:22:55;8.55;;;4.80;;
29686;SDS011;16599;47.078;15.536;2023-06-14T06:25:22;7.57;;;4.57;;
29686;SDS011;16599;47.078;15.536;2023-06-14T06:27:49;8.40;;;4.82;;
29686;SDS011;16599;47.078;15.536;2023-06-14T06:30:16;8.15;;;4.78;;
29686;SDS011;16599;47.078;15.536;2023-06-14T06:32:43;7.03;;;5.30;;
29686;SDS011;16599;47.078;15.536;2023-06-14T06:35:11;11.00;;;5.40;;
29686;SDS011;16599;47.078;15.536;2023-06-14T06:37:39;9.50;;;4.75;;
29686;SDS011;16599;47.078;15.536;2023-06-14T06:40:07;9.50;;;5.70;;
29686;SDS011;16599;47.078;15.536;2023-06-14T06:42:36;9.70;;;5.70;;
29686;SDS011;16599;47.078;15.536;2023-06-14T06:45:03;12.30;;;5.70;;
29686;SDS011;16599;47.078;15.536;2023-06-14T06:47:30;9.32;;;6.15;;
29686;SDS011;16599;47.078;15.536;2023-06-14T06:49:57;12.45;;;5.97;;
29686;SDS011;16599;47.078;15.536;2023-06-14T06:52:24;7.70;;;5.80;;
29686;SDS011;16599;47.078;15.536;2023-06-14T06:54:51;9.70;;;6.03;;
29686;SDS011;16599;47.078;15.536;2023-06-14T06:57:21;12.77;;;5.60;;
29686;SDS011;16599;47.078;15.536;2023-06-14T06:59:52;7.65;;;5.68;;
29686;SDS011;16599;47.078;15.536;2023-06-14T07:02:18;13.02;;;6.03;;
29686;SDS011;16599;47.078;15.536;2023-06-14T07:04:45;8.32;;;5.60;;
29686;SDS011;16599;47.078;15.536;2023-06-14T07:07:12;11.82;;;6.20;;
29686;SDS011;16599;47.078;15.536;2023-06-14T07:09:39;9.70;;;5.45;;
29686;SDS011;16599;47.078;15.536;2023-06-14T07:12:08;9.60;;;5.85;;
29686;SDS011;16599;47.078;15.536;2023-06-14T07:14:35;9.50;;;6.20;;
29686;SDS011;16599;47.078;15.536;2023-06-14T07:17:02;9.02;;;6.20;;
29686;SDS011;16599;47.078;15.536;2023-06-14T07:19:29;12.63;;;6.57;;
29686;SDS011;16599;47.078;15.536;2023-06-14T07:21:56;9.80;;;6.43;;
29686;SDS011;16599;47.078;15.536;2023-06-14T07:24:24;12.90;;;6.68;;
29686;SDS011;16599;47.078;15.536;2023-06-14T07:26:51;11.30;;;6.82;;
29686;SDS011;16599;47.078;15.536;2023-06-14T07:29:18;10.60;;;6.80;;
29686;SDS011;16599;47.078;15.536;2023-06-14T07:31:45;13.65;;;6.72;;
29686;SDS011;16599;47.078;15.536;2023-06-14T07:34:12;11.05;;;6.50;;
29686;SDS011;16599;47.078;15.536;2023-06-14T07:36:39;12.57;;;6.40;;
29686;SDS011;16599;47.078;15.536;2023-06-14T07:39:06;9.07;;;6.88;;
29686;SDS011;16599;47.078;15.536;2023-06-14T07:41:33;11.00;;;7.32;;
29686;SDS011;16599;47.078;15.536;2023-06-14T07:44:00;17.38;;;7.28;;
29686;SDS011;16599;47.078;15.536;2023-06-14T07:46:27;10.60;;;7.30;;
29686;SDS011;16599;47.078;15.536;2023-06-14T07:48:54;10.27;;;7.05;;
29686;SDS011;16599;47.078;15.536;2023-06-14T07:51:21;9.93;;;6.85;;
29686;SDS011;16599;47.078;15.536;2023-06-14T07:53:49;14.55;;;7.55;;
29686;SDS011;16599;47.078;15.536;2023-06-14T07:56:16;14.23;;;6.43;;
29686;SDS011;16599;47.078;15.536;2023-06-14T07:58:43;11.90;;;7.20;;
29686;SDS011;16599;47.078;15.536;2023-06-14T08:01:09;11.20;;;6.70;;
29686;SDS011;16599;47.078;15.536;2023-06-14T08:03:37;13.00;;;6.60;;
29686;SDS011;16599;47.078;15.536;2023-06-14T08:06:05;12.20;;;7.03;;
29686;SDS011;16599;47.078;15.536;2023-06-14T08:08:33;12.75;;;7.07;;
29686;SDS011;16599;47.078;15.536;2023-06-14T08:11:00;9.15;;;6.70;;
29686;SDS011;16599;47.078;15.536;2023-06-14T08:13:27;13.02;;;7.20;;
29686;SDS011;16599;47.078;15.536;2023-06-14T08:15:54;13.38;;;7.57;;
29686;SDS011;16599;47.078;15.536;2023-06-14T08:18:21;10.05;;;6.90;;
29686;SDS011;16599;47.078;15.536;2023-06-14T08:20:48;9.98;;;7.20;;
29686;SDS011;16599;47.078;15.536;2023-06-14T08:23:16;10.65;;;7.07;;
29686;SDS011;16599;47.078;15.536;2023-06-14T08:25:45;10.75;;;7.35;;
29686;SDS011;16599;47.078;15.536;2023-06-14T08:28:12;10.18;;;6.47;;
29686;SDS011;16599;47.078;15.536;2023-06-14T08:30:39;9.73;;;7.18;;
29686;SDS011;16599;47.078;15.536;2023-06-14T08:33:06;16.73;;;7.22;;
29686;SDS011;16599;47.078;15.536;2023-06-14T08:35:42;13.43;;;6.47;;
29686;SDS011;16599;47.078;15.536;2023-06-14T08:38:10;10.88;;;8.00;;
29686;SDS011;16599;47.078;15.536;2023-06-14T08:40:38;9.02;;;7.20;;
29686;SDS011;16599;47.078;15.536;2023-06-14T08:43:07;11.38;;;7.50;;
29686;SDS011;16599;47.078;15.536;2023-06-14T08:45:34;10.52;;;7.30;;
29686;SDS011;16599;47.078;15.536;2023-06-14T08:48:01;13.02;;;7.30;;
29686;SDS011;16599;47.078;15.536;2023-06-14T08:50:29;14.30;;;8.00;;
29686;SDS011;16599;47.078;15.536;2023-06-14T08:52:59;11.68;;;7.30;;
29686;SDS011;16599;47.078;15.536;2023-06-14T08:55:30;11.57;;;6.77;;
29686;SDS011;16599;47.078;15.536;2023-06-14T08:58:02;13.90;;;7.95;;
29686;SDS011;16599;47.078;15.536;2023-06-14T09:00:30;16.67;;;8.35;;
29686;SDS011;16599;47.078;15.536;2023-06-14T09:02:57;15.43;;;8.20;;
29686;SDS011;16599;47.078;15.536;2023-06-14T09:05:25;24.75;;;14.23;;
29686;SDS011;16599;47.078;15.536;2023-06-14T09:07:53;13.02;;;8.32;;
29686;SDS011;16599;47.078;15.536;2023-06-14T09:10:21;12.68;;;8.18;;
29686;SDS011;16599;47.078;15.536;2023-06-14T09:12:50;12.15;;;8.27;;
29686;SDS011;16599;47.078;15.536;2023-06-14T09:15:17;11.80;;;8.48;;
29686;SDS011;16599;47.078;15.536;2023-06-14T09:17:44;12.20;;;7.82;;
29686;SDS011;16599;47.078;15.536;2023-06-14T09:20:11;15.43;;;8.55;;
29686;SDS011;16599;47.078;15.536;2023-06-14T09:22:46;14.30;;;7.90;;
29686;SDS011;16599;47.078;15.536;2023-06-14T09:25:13;13.18;;;8.85;;
29686;SDS011;16599;47.078;15.536;2023-06-14T09:28:01;13.68;;;8.40;;
29686;SDS011;16599;47.078;15.536;2023-06-14T09:30:28;15.23;;;9.20;;
29686;SDS011;16599;47.078;15.536;2023-06-14T09:32:55;12.80;;;9.02;;
29686;SDS011;16599;47.078;15.536;2023-06-14T09:35:26;14.20;;;9.43;;
29686;SDS011;16599;47.078;15.536;2023-06-14T09:37:56;19.40;;;10.38;;
29686;SDS011;16599;47.078;15.536;2023-06-14T09:40:23;12.23;;;7.95;;
29686;SDS011;16599;47.078;15.536;2023-06-14T09:42:50;13.60;;;8.70;;
29686;SDS011;16599;47.078;15.536;2023-06-14T09:45:25;10.70;;;8.20;;
29686;SDS011;16599;47.078;15.536;2023-06-14T09:48:15;15.85;;;8.50;;
29686;SDS011;16599;47.078;15.536;2023-06-14T09:50:45;19.85;;;9.90;;
29686;SDS011;16599;47.078;15.536;2023-06-14T09:53:15;11.77;;;8.00;;
29686;SDS011;16599;47.078;15.536;2023-06-14T09:55:42;12.55;;;7.82;;
29686;SDS011;16599;47.078;15.536;2023-06-14T09:58:10;9.93;;;7.78;;
29686;SDS011;16599;47.078;15.536;2023-06-14T10:00:38;14.90;;;8.02;;
29686;SDS011;16599;47.078;15.536;2023-06-14T10:03:13;10.45;;;7.03;;
29686;SDS011;16599;47.078;15.536;2023-06-14T10:05:46;13.02;;;7.82;;
29686;SDS011;16599;47.078;15.536;2023-06-14T10:08:18;10.18;;;7.00;;
29686;SDS011;16599;47.078;15.536;2023-06-14T10:10:50;11.15;;;6.80;;
29686;SDS011;16599;47.078;15.536;2023-06-14T10:13:17;10.93;;;6.50;;
29686;SDS011;16599;47.078;15.536;2023-06-14T10:15:52;9.48;;;6.95;;
29686;SDS011;16599;47.078;15.536;2023-06-14T10:21:23;8.25;;;5.93;;
29686;SDS011;16599;47.078;15.536;2023-06-14T10:24:15;11.20;;;6.32;;
29686;SDS011;16599;47.078;15.536;2023-06-14T10:26:51;12.82;;;6.10;;
29686;SDS011;16599;47.078;15.536;2023-06-14T10:29:22;10.75;;;6.18;;
29686;SDS011;16599;47.078;15.536;2023-06-14T10:31:50;13.55;;;6.97;;
29686;SDS011;16599;47.078;15.536;2023-06-14T10:34:23;12.52;;;6.53;;
29686;SDS011;16599;47.078;15.536;2023-06-14T10:37:05;11.60;;;5.85;;
29686;SDS011;16599;47.078;15.536;2023-06-14T10:39:38;8.43;;;5.47;;
29686;SDS011;16599;47.078;15.536;2023-06-14T10:42:09;8.60;;;5.95;;
29686;SDS011;16599;47.078;15.536;2023-06-14T10:44:46;8.52;;;5.75;;
29686;SDS011;16599;47.078;15.536;2023-06-14T10:49:53;9.50;;;6.53;;
29686;SDS011;16599;47.078;15.536;2023-06-14T10:52:33;9.68;;;5.82;;
29686;SDS011;16599;47.078;15.536;2023-06-14T10:55:06;7.60;;;5.65;;
29686;SDS011;16599;47.078;15.536;2023-06-14T10:57:45;7.25;;;5.13;;
29686;SDS011;16599;47.078;15.536;2023-06-14T11:00:24;7.90;;;5.22;;
29686;SDS011;16599;47.078;15.536;2023-06-14T11:10:46;5.50;;;4.13;;
29686;SDS011;16599;47.078;15.536;2023-06-14T11:13:15;6.28;;;4.20;;
29686;SDS011;16599;47.078;15.536;2023-06-14T11:15:44;9.85;;;4.50;;
29686;SDS011;16599;47.078;15.536;2023-06-14T11:18:13;7.72;;;4.45;;
29686;SDS011;16599;47.078;15.536;2023-06-14T11:20:40;10.50;;;3.95;;
29686;SDS011;16599;47.078;15.536;2023-06-14T11:23:07;7.65;;;4.60;;
29686;SDS011;16599;47.078;15.536;2023-06-14T11:25:34;10.43;;;4.55;;
29686;SDS011;16599;47.078;15.536;2023-06-14T11:28:01;4.28;;;3.70;;
29686;SDS011;16599;47.078;15.536;2023-06-14T11:30:27;7.25;;;3.75;;
29686;SDS011;16599;47.078;15.536;2023-06-14T11:32:54;6.78;;;4.38;;
29686;SDS011;16599;47.078;15.536;2023-06-14T11:35:24;9.20;;;4.80;;
29686;SDS011;16599;47.078;15.536;2023-06-14T11:37:53;6.40;;;3.92;;
29686;SDS011;16599;47.078;15.536;2023-06-14T11:40:25;6.30;;;3.90;;
29686;SDS011;16599;47.078;15.536;2023-06-14T11:42:58;9.07;;;4.45;;
29686;SDS011;16599;47.078;15.536;2023-06-14T11:45:27;5.95;;;4.03;;
29686;SDS011;16599;47.078;15.536;2023-06-14T11:47:55;9.93;;;4.47;;
29686;SDS011;16599;47.078;15.536;2023-06-14T11:50:23;5.85;;;4.45;;
29686;SDS011;16599;47.078;15.536;2023-06-14T11:55:57;7.28;;;4.43;;
29686;SDS011;16599;47.078;15.536;2023-06-14T11:58:25;6.00;;;4.68;;
29686;SDS011;16599;47.078;15.536;2023-06-14T12:00:53;8.68;;;4.95;;
29686;SDS011;16599;47.078;15.536;2023-06-14T12:03:28;7.32;;;4.22;;
29686;SDS011;16599;47.078;15.536;2023-06-14T12:06:06;6.68;;;4.03;;
29686;SDS011;16599;47.078;15.536;2023-06-14T12:08:35;9.23;;;4.38;;
29686;SDS011;16599;47.078;15.536;2023-06-14T12:11:10;11.05;;;5.20;;
29686;SDS011;16599;47.078;15.536;2023-06-14T12:13:43;7.78;;;4.65;;
29686;SDS011;16599;47.078;15.536;2023-06-14T12:16:11;6.07;;;4.50;;
29686;SDS011;16599;47.078;15.536;2023-06-14T12:18:38;5.63;;;4.43;;
29686;SDS011;16599;47.078;15.536;2023-06-14T12:21:08;5.82;;;3.88;;
29686;SDS011;16599;47.078;15.536;2023-06-14T12:23:42;6.82;;;4.35;;
29686;SDS011;16599;47.078;15.536;2023-06-14T12:26:15;6.18;;;4.40;;
29686;SDS011;16599;47.078;15.536;2023-06-14T12:28:43;5.30;;;4.00;;
29686;SDS011;16599;47.078;15.536;2023-06-14T12:31:11;9.48;;;4.45;;
29686;SDS011;16599;47.078;15.536;2023-06-14T12:33:40;10.98;;;4.57;;
29686;SDS011;16599;47.078;15.536;2023-06-14T12:36:08;6.40;;;4.35;;
29686;SDS011;16599;47.078;15.536;2023-06-14T12:38:36;6.85;;;4.30;;
29686;SDS011;16599;47.078;15.536;2023-06-14T12:41:04;8.38;;;4.35;;
29686;SDS011;16599;47.078;15.536;2023-06-14T12:43:31;7.70;;;4.45;;
29686;SDS011;16599;47.078;15.536;2023-06-14T12:45:58;5.57;;;4.22;;
29686;SDS011;16599;47.078;15.536;2023-06-14T12:48:26;5.60;;;4.00;;
29686;SDS011;16599;47.078;15.536;2023-06-14T12:50:57;4.85;;;3.90;;
29686;SDS011;16599;47.078;15.536;2023-06-14T12:53:24;6.50;;;4.22;;
29686;SDS011;16599;47.078;15.536;2023-06-14T12:55:51;6.97;;;4.35;;
29686;SDS011;16599;47.078;15.536;2023-06-14T12:58:18;5.57;;;4.10;;
29686;SDS011;16599;47.078;15.536;2023-06-14T13:00:46;9.75;;;3.78;;
29686;SDS011;16599;47.078;15.536;2023-06-14T13:03:13;7.82;;;4.13;;
29686;SDS011;16599;47.078;15.536;2023-06-14T13:05:41;5.05;;;3.80;;
29686;SDS011;16599;47.078;15.536;2023-06-14T13:08:09;9.23;;;3.97;;
29686;SDS011;16599;47.078;15.536;2023-06-14T13:10:36;6.05;;;3.85;;
29686;SDS011;16599;47.078;15.536;2023-06-14T13:13:03;5.30;;;3.60;;
29686;SDS011;16599;47.078;15.536;2023-06-14T13:15:30;6.95;;;4.13;;
29686;SDS011;16599;47.078;15.536;2023-06-14T13:17:57;8.82;;;4.38;;
29686;SDS011;16599;47.078;15.536;2023-06-14T13:20:24;5.80;;;4.15;;
29686;SDS011;16599;47.078;15.536;2023-06-14T13:22:50;6.43;;;4.10;;
29686;SDS011;16599;47.078;15.536;2023-06-14T13:25:21;7.50;;;4.47;;
29686;SDS011;16599;47.078;15.536;2023-06-14T13:27:48;5.20;;;3.83;;
29686;SDS011;16599;47.078;15.536;2023-06-14T13:30:15;6.97;;;4.13;;
29686;SDS011;16599;47.078;15.536;2023-06-14T13:32:43;5.10;;;4.05;;
29686;SDS011;16599;47.078;15.536;2023-06-14T13:35:12;6.53;;;4.13;;
29686;SDS011;16599;47.078;15.536;2023-06-14T13:37:39;6.78;;;4.07;;
29686;SDS011;16599;47.078;15.536;2023-06-14T13:40:06;5.93;;;4.28;;
29686;SDS011;16599;47.078;15.536;2023-06-14T13:42:33;9.15;;;4.05;;
29686;SDS011;16599;47.078;15.536;2023-06-14T13:45:00;8.00;;;4.65;;
29686;SDS011;16599;47.078;15.536;2023-06-14T13:47:27;5.15;;;4.13;;
29686;SDS011;16599;47.078;15.536;2023-06-14T13:49:54;7.75;;;4.28;;
29686;SDS011;16599;47.078;15.536;2023-06-14T13:52:20;4.75;;;4.00;;
29686;SDS011;16599;47.078;15.536;2023-06-14T13:54:48;5.43;;;3.83;;
29686;SDS011;16599;47.078;15.536;2023-06-14T13:57:15;7.75;;;4.10;;
29686;SDS011;16599;47.078;15.536;2023-06-14T13:59:42;8.88;;;4.32;;
29686;SDS011;16599;47.078;15.536;2023-06-14T14:02:11;7.55;;;4.65;;
29686;SDS011;16599;47.078;15.536;2023-06-14T14:04:38;5.40;;;3.72;;
29686;SDS011;16599;47.078;15.536;2023-06-14T14:07:06;6.78;;;4.38;;
29686;SDS011;16599;47.078;15.536;2023-06-14T14:09:33;6.55;;;4.50;;
29686;SDS011;16599;47.078;15.536;2023-06-14T14:12:01;8.10;;;4.35;;
29686;SDS011;16599;47.078;15.536;2023-06-14T14:14:30;6.78;;;4.60;;
29686;SDS011;16599;47.078;15.536;2023-06-14T14:16:58;5.88;;;4.13;;
29686;SDS011;16599;47.078;15.536;2023-06-14T14:19:25;9.25;;;4.57;;
29686;SDS011;16599;47.078;15.536;2023-06-14T14:21:52;8.38;;;4.18;;
29686;SDS011;16599;47.078;15.536;2023-06-14T14:24:20;6.50;;;4.05;;
29686;SDS011;16599;47.078;15.536;2023-06-14T14:26:47;5.88;;;4.30;;
29686;SDS011;16599;47.078;15.536;2023-06-14T14:29:16;6.75;;;3.97;;
29686;SDS011;16599;47.078;15.536;2023-06-14T14:31:43;8.55;;;4.40;;
29686;SDS011;16599;47.078;15.536;2023-06-14T14:34:10;5.90;;;4.30;;
29686;SDS011;16599;47.078;15.536;2023-06-14T14:36:37;6.60;;;4.07;;
29686;SDS011;16599;47.078;15.536;2023-06-14T14:39:08;5.90;;;4.30;;
29686;SDS011;16599;47.078;15.536;2023-06-14T14:41:36;6.38;;;4.80;;
29686;SDS011;16599;47.078;15.536;2023-06-14T14:44:07;5.88;;;4.85;;
29686;SDS011;16599;47.078;15.536;2023-06-14T14:46:34;6.68;;;4.47;;
29686;SDS011;16599;47.078;15.536;2023-06-14T14:49:01;8.68;;;4.35;;
29686;SDS011;16599;47.078;15.536;2023-06-14T14:51:29;8.45;;;4.78;;
29686;SDS011;16599;47.078;15.536;2023-06-14T14:53:56;6.28;;;4.60;;
29686;SDS011;16599;47.078;15.536;2023-06-14T14:56:22;4.53;;;3.92;;
29686;SDS011;16599;47.078;15.536;2023-06-14T14:58:50;8.57;;;4.47;;
29686;SDS011;16599;47.078;15.536;2023-06-14T15:01:17;6.82;;;4.30;;
29686;SDS011;16599;47.078;15.536;2023-06-14T15:03:44;11.88;;;4.63;;
29686;SDS011;16599;47.078;15.536;2023-06-14T15:06:14;6.43;;;3.85;;
29686;SDS011;16599;47.078;15.536;2023-06-14T15:08:41;6.85;;;4.47;;